createdAt,value
2019-02-04T00:00:52.716Z,41.40
2019-02-04T00:05:57.790Z,38.27
2019-02-04T00:11:06.388Z,36.37
2019-02-04T00:16:13.595Z,44.43
2019-02-04T00:21:21.203Z,38.67
2019-02-04T00:26:27.884Z,36.80
2019-02-04T00:31:38.059Z,36.00
2019-02-04T00:36:43.656Z,38.77
2019-02-04T00:41:48.896Z,43.00
2019-02-04T00:46:55.569Z,40.17
2019-02-04T00:52:01.783Z,39.53
2019-02-04T00:57:06.992Z,37.47
2019-02-04T01:02:12.494Z,38.13
2019-02-04T01:07:17.539Z,40.33
2019-02-04T01:12:22.809Z,43.40
2019-02-04T01:17:29.100Z,46.90
2019-02-04T01:22:34.225Z,40.23
2019-02-04T01:27:39.328Z,39.30
2019-02-04T01:32:44.912Z,36.77
2019-02-04T01:37:50.067Z,37.07
2019-02-04T01:42:55.788Z,40.47
2019-02-04T01:48:00.974Z,43.53
2019-02-04T01:53:06.197Z,36.07
2019-02-04T01:58:11.856Z,33.53
2019-02-04T02:03:17.510Z,39.00
2019-02-04T02:08:22.754Z,38.87
2019-02-04T02:13:27.828Z,39.57
2019-02-04T02:18:32.912Z,38.90
2019-02-04T02:23:38.204Z,38.30
2019-02-04T02:28:43.420Z,40.60
2019-02-04T02:33:48.574Z,47.10
2019-02-04T02:38:53.758Z,41.13
2019-02-04T02:43:59.403Z,37.27
2019-02-04T02:49:05.065Z,43.03
2019-02-04T02:54:10.188Z,40.83
2019-02-04T02:59:15.441Z,40.93
2019-02-04T03:04:20.860Z,38.30
2019-02-04T03:09:26.718Z,42.90
2019-02-04T03:14:58.144Z,47.50
2019-02-04T03:20:03.392Z,39.23
2019-02-04T03:25:10.272Z,45.67
2019-02-04T03:30:19.523Z,43.00
2019-02-04T03:35:24.964Z,44.60
2019-02-04T03:40:32.104Z,39.33
2019-02-04T03:45:37.246Z,44.00
2019-02-04T03:50:42.708Z,46.00
2019-02-04T03:55:47.820Z,44.33
2019-02-04T04:00:53.174Z,41.87
2019-02-04T04:05:58.255Z,50.03
2019-02-04T04:11:03.427Z,48.80
2019-02-04T04:16:08.821Z,53.83
2019-02-04T04:21:14.585Z,45.70
2019-02-04T04:26:20.004Z,45.37
2019-02-04T04:31:25.204Z,49.60
2019-02-04T04:36:30.335Z,46.53
2019-02-04T04:41:35.462Z,47.50
2019-02-04T04:46:40.594Z,40.03
2019-02-04T04:51:45.646Z,44.00
2019-02-04T04:56:51.723Z,40.63
2019-02-04T05:01:56.844Z,41.83
2019-02-04T05:07:01.886Z,43.70
2019-02-04T05:12:12.026Z,44.43
2019-02-04T05:17:17.536Z,44.43
2019-02-04T05:22:22.808Z,44.13
2019-02-04T05:27:28.094Z,43.50
2019-02-04T05:32:33.468Z,46.97
2019-02-04T05:37:38.775Z,50.20
2019-02-04T05:42:44.144Z,44.83
2019-02-04T05:47:49.318Z,47.13
2019-02-04T05:52:54.880Z,43.87
2019-02-04T05:58:00.473Z,43.33
2019-02-04T06:03:07.596Z,47.07
2019-02-04T06:08:12.698Z,46.47
2019-02-04T06:13:18.106Z,46.60
2019-02-04T06:18:24.449Z,41.10
2019-02-04T06:23:29.655Z,42.17
2019-02-04T06:28:34.712Z,45.77
2019-02-04T06:33:39.746Z,46.40
2019-02-04T06:38:45.133Z,41.87
2019-02-04T06:43:50.608Z,44.77
2019-02-04T06:48:56.694Z,43.00
2019-02-04T06:54:02.913Z,48.73
2019-02-04T06:59:08.125Z,41.30
2019-02-04T07:04:13.504Z,48.27
2019-02-04T07:09:18.773Z,49.77
2019-02-04T07:14:23.969Z,46.03
2019-02-04T07:19:29.124Z,42.57
2019-02-04T07:24:42.857Z,44.93
2019-02-04T07:29:42.435Z,47.00
2019-02-04T07:34:47.618Z,48.10
2019-02-04T07:39:53.561Z,49.23
2019-02-04T07:44:58.936Z,47.33
2019-02-04T07:50:04.411Z,40.07
2019-02-04T07:55:09.913Z,38.40
2019-02-04T08:00:18.052Z,38.67
2019-02-04T08:05:23.223Z,36.73
2019-02-04T08:10:28.513Z,37.97
2019-02-04T08:15:36.279Z,40.57
2019-02-04T08:20:41.626Z,36.37
2019-02-04T08:25:47.000Z,40.23
2019-02-04T08:30:52.591Z,32.77
2019-02-04T08:35:57.747Z,34.73
2019-02-04T08:41:03.432Z,37.20
2019-02-04T08:46:08.653Z,30.20
2019-02-04T08:51:14.382Z,31.13
2019-02-04T08:56:19.921Z,33.67
2019-02-04T09:01:25.897Z,41.90
2019-02-04T09:06:31.363Z,43.53
2019-02-04T09:11:36.642Z,37.23
2019-02-04T09:16:42.917Z,32.20
2019-02-04T09:21:48.218Z,32.10
2019-02-04T09:26:53.490Z,31.57
2019-02-04T09:31:59.555Z,31.63
2019-02-04T09:37:05.279Z,32.97
2019-02-04T09:42:10.677Z,25.73
2019-02-04T09:47:16.591Z,28.67
2019-02-04T09:52:22.717Z,31.17
2019-02-04T09:57:28.121Z,32.40
2019-02-04T10:02:33.479Z,27.83
2019-02-04T10:07:38.709Z,29.83
2019-02-04T10:12:44.298Z,29.20
2019-02-04T10:17:49.423Z,26.23
2019-02-04T10:23:01.061Z,25.23
2019-02-04T10:28:08.521Z,24.43
2019-02-04T10:33:13.874Z,23.43
2019-02-04T10:38:19.252Z,24.50
2019-02-04T10:43:24.517Z,26.93
2019-02-04T10:48:30.069Z,28.57
2019-02-04T10:53:35.251Z,30.63
2019-02-04T10:58:41.141Z,25.37
2019-02-04T11:03:46.382Z,21.47
2019-02-04T11:08:52.163Z,21.40
2019-02-04T11:13:57.760Z,19.33
2019-02-04T11:19:02.960Z,19.17
2019-02-04T11:24:08.384Z,19.27
2019-02-04T11:29:13.915Z,17.93
2019-02-04T11:34:19.822Z,17.20
2019-02-04T11:39:25.347Z,19.80
2019-02-04T11:44:30.750Z,18.17
2019-02-04T11:49:36.544Z,21.50
2019-02-04T11:54:42.106Z,16.87
2019-02-04T11:59:48.145Z,20.50
2019-02-04T12:04:53.386Z,19.77
2019-02-04T12:09:58.868Z,17.90
2019-02-04T12:15:04.425Z,20.07
2019-02-04T12:20:11.415Z,19.63
2019-02-04T12:25:19.155Z,17.90
2019-02-04T12:30:31.080Z,19.63
2019-02-04T12:35:36.632Z,18.80
2019-02-04T12:40:42.883Z,21.20
2019-02-04T12:45:49.090Z,18.50
2019-02-04T12:50:55.021Z,17.00
2019-02-04T12:56:01.251Z,19.83
2019-02-04T13:01:08.148Z,17.30
2019-02-04T13:06:14.603Z,18.30
2019-02-04T13:11:20.160Z,17.93
2019-02-04T13:16:31.833Z,22.07
2019-02-04T13:21:45.061Z,23.60
2019-02-04T13:26:47.028Z,18.40
2019-02-04T13:31:55.449Z,17.83
2019-02-04T13:37:01.061Z,17.13
2019-02-04T13:42:08.051Z,18.60
2019-02-04T13:47:13.323Z,24.20
2019-02-04T13:52:19.595Z,23.20
2019-02-04T13:57:24.859Z,21.23
2019-02-04T14:02:30.095Z,19.57
2019-02-04T14:07:36.381Z,19.10
2019-02-04T14:12:45.498Z,21.17
2019-02-04T14:17:50.168Z,21.00
2019-02-04T14:22:56.243Z,21.13
2019-02-04T14:28:03.902Z,20.97
2019-02-04T14:33:09.002Z,18.53
2019-02-04T14:38:15.499Z,20.03
2019-02-04T14:43:29.194Z,21.17
2019-02-04T14:49:28.065Z,21.50
2019-02-04T14:55:14.759Z,21.07
2019-02-04T15:00:50.479Z,19.97
2019-02-04T15:06:16.275Z,20.60
2019-02-04T15:11:47.873Z,21.10
2019-02-04T15:17:19.169Z,21.97
2019-02-04T15:22:44.502Z,21.90
2019-02-04T15:28:20.853Z,24.87
2019-02-04T15:34:07.528Z,24.07
2019-02-04T15:40:15.183Z,22.57
2019-02-04T15:45:42.221Z,27.60
2019-02-04T15:51:11.953Z,26.90
2019-02-04T15:56:17.754Z,26.80
2019-02-04T16:01:23.298Z,25.83
2019-02-04T16:06:28.858Z,24.10
2019-02-04T16:11:34.305Z,28.73
2019-02-04T16:16:40.509Z,27.40
2019-02-04T16:21:47.384Z,34.03
2019-02-04T16:26:53.773Z,27.17
2019-02-04T16:31:59.218Z,27.83
2019-02-04T16:37:04.696Z,27.90
2019-02-04T16:42:11.601Z,30.90
2019-02-04T16:47:17.329Z,31.00
2019-02-04T16:52:22.565Z,28.47
2019-02-04T16:57:28.469Z,30.63
2019-02-04T17:02:35.441Z,29.63
2019-02-04T17:07:41.461Z,33.33
2019-02-04T17:12:46.995Z,32.33
2019-02-04T17:17:52.454Z,33.00
2019-02-04T17:22:58.509Z,30.97
2019-02-04T17:28:04.121Z,30.73
2019-02-04T17:33:09.600Z,30.70
2019-02-04T17:38:15.015Z,28.60
2019-02-04T17:43:21.147Z,28.97
2019-02-04T17:48:26.533Z,29.07
2019-02-04T17:53:34.374Z,30.93
2019-02-04T17:58:39.861Z,33.70
2019-02-04T18:03:45.092Z,30.70
2019-02-04T18:08:50.550Z,42.23
2019-02-04T18:19:15.127Z,30.77
2019-02-04T18:24:20.691Z,28.23
2019-02-04T18:29:25.852Z,31.70
2019-02-04T18:34:31.223Z,31.97
2019-02-04T18:39:37.889Z,30.93
2019-02-04T18:44:43.791Z,27.40
2019-02-04T18:49:49.261Z,24.20
2019-02-04T18:54:54.822Z,31.43
2019-02-04T19:00:00.517Z,25.13
2019-02-04T19:05:07.979Z,35.50
2019-02-04T19:10:16.007Z,29.63
2019-02-04T19:15:22.368Z,37.57
2019-02-04T19:20:27.747Z,38.50
2019-02-04T19:25:33.107Z,35.47
2019-02-04T19:30:44.923Z,36.53
2019-02-04T19:35:50.052Z,35.97
2019-02-04T19:40:56.254Z,32.63
2019-02-04T19:46:02.216Z,32.73
2019-02-04T19:51:07.394Z,34.20
2019-02-04T19:56:13.047Z,33.43
2019-02-04T20:01:19.481Z,33.27
2019-02-04T20:06:25.600Z,32.07
2019-02-04T20:11:31.297Z,33.40
2019-02-04T20:16:39.420Z,32.77
2019-02-04T20:21:56.382Z,35.50
2019-02-04T20:27:01.890Z,33.23
2019-02-04T20:32:12.157Z,29.80
2019-02-04T20:37:24.626Z,30.87
2019-02-04T20:42:29.898Z,33.17
2019-02-04T20:47:35.009Z,31.50
2019-02-04T20:52:40.239Z,33.70
2019-02-04T20:57:47.001Z,34.47
2019-02-04T21:02:52.571Z,36.80
2019-02-04T21:07:58.070Z,32.57
2019-02-04T21:13:03.527Z,29.73
2019-02-04T21:18:09.442Z,30.53
2019-02-04T21:23:14.763Z,33.13
2019-02-04T21:28:19.966Z,31.27
2019-02-04T21:33:31.024Z,30.80
2019-02-04T21:38:46.522Z,48.03
2019-02-04T21:43:55.961Z,35.43
2019-02-04T21:49:01.297Z,38.10
2019-02-04T21:54:06.776Z,31.97
2019-02-04T21:59:12.529Z,34.90
2019-02-04T22:04:22.280Z,38.37
2019-02-04T22:09:29.074Z,35.47
2019-02-04T22:14:34.522Z,32.33
2019-02-04T22:19:40.405Z,35.00
2019-02-04T22:24:45.567Z,34.73
2019-02-04T22:29:50.715Z,35.53
2019-02-04T22:34:56.247Z,35.47
2019-02-04T22:40:02.564Z,34.57
2019-02-04T22:45:10.241Z,36.73
2019-02-04T22:50:18.447Z,34.43
2019-02-04T22:55:31.632Z,38.40
2019-02-04T23:01:09.313Z,37.53
2019-02-04T23:06:15.140Z,36.20
2019-02-04T23:11:20.637Z,39.30
2019-02-04T23:16:26.140Z,37.10
2019-02-04T23:21:32.733Z,38.53
2019-02-04T23:26:38.370Z,36.57
2019-02-04T23:31:43.844Z,38.20
2019-02-04T23:36:49.577Z,35.27
2019-02-04T23:41:58.261Z,33.90
2019-02-04T23:47:01.951Z,33.50
2019-02-04T23:52:07.420Z,35.10
2019-02-04T23:57:13.894Z,40.07
